createdAt,value
2023-01-29T00:00:15.281Z,51.08
2023-01-29T00:02:43.899Z,52.10
2023-01-29T00:05:26.972Z,52.20
2023-01-29T00:07:55.874Z,53.00
2023-01-29T00:10:24.629Z,51.35
2023-01-29T00:12:53.174Z,51.25
2023-01-29T00:15:22.042Z,51.55
2023-01-29T00:17:50.569Z,53.83
2023-01-29T00:20:20.914Z,51.33
2023-01-29T00:22:50.330Z,51.38
2023-01-29T00:25:18.816Z,49.85
2023-01-29T00:27:47.166Z,51.97
2023-01-29T00:30:19.940Z,50.20
2023-01-29T00:32:49.024Z,51.88
2023-01-29T00:35:17.594Z,51.40
2023-01-29T00:37:47.256Z,50.58
2023-01-29T00:40:16.499Z,48.15
2023-01-29T00:43:04.149Z,49.47
2023-01-29T00:45:33.825Z,52.22
2023-01-29T00:48:02.262Z,51.08
2023-01-29T00:50:31.481Z,49.65
2023-01-29T00:53:01.475Z,49.85
2023-01-29T00:55:30.359Z,46.92
2023-01-29T00:57:58.542Z,47.72
2023-01-29T01:00:27.069Z,49.03
2023-01-29T01:03:06.867Z,51.38
2023-01-29T01:05:36.789Z,47.42
2023-01-29T01:08:27.949Z,48.50
2023-01-29T01:11:04.362Z,45.10
2023-01-29T01:13:34.453Z,45.78
2023-01-29T01:16:03.578Z,47.67
2023-01-29T01:18:32.351Z,50.03
2023-01-29T01:21:00.753Z,44.65
2023-01-29T01:23:30.458Z,45.50
2023-01-29T01:25:59.211Z,47.72
2023-01-29T01:28:27.880Z,43.97
2023-01-29T01:30:56.236Z,45.83
2023-01-29T01:33:25.565Z,45.40
2023-01-29T01:35:53.900Z,46.80
2023-01-29T01:38:23.066Z,46.63
2023-01-29T01:40:52.744Z,46.67
2023-01-29T01:43:22.447Z,48.60
2023-01-29T01:45:50.778Z,50.65
2023-01-29T01:48:24.985Z,51.15
2023-01-29T01:51:00.704Z,48.60
2023-01-29T01:53:37.441Z,47.03
2023-01-29T01:56:13.059Z,47.17
2023-01-29T01:58:44.930Z,49.45
2023-01-29T02:01:14.425Z,45.80
2023-01-29T02:04:05.360Z,48.17
2023-01-29T02:06:52.261Z,47.72
2023-01-29T02:09:37.097Z,46.80
2023-01-29T02:12:10.899Z,45.35
2023-01-29T02:14:42.724Z,48.42
2023-01-29T02:17:15.040Z,48.33
2023-01-29T02:19:54.231Z,49.17
2023-01-29T02:23:02.735Z,48.15
2023-01-29T02:26:00.752Z,46.97
2023-01-29T02:28:53.583Z,47.35
2023-01-29T02:31:31.609Z,46.58
2023-01-29T02:34:13.064Z,46.60
2023-01-29T02:36:50.924Z,47.15
2023-01-29T02:39:29.376Z,45.72
2023-01-29T02:42:11.632Z,48.47
2023-01-29T02:44:48.876Z,45.25
2023-01-29T02:47:23.245Z,45.47
2023-01-29T02:50:02.855Z,43.55
2023-01-29T02:52:42.818Z,45.90
2023-01-29T02:55:16.983Z,46.88
2023-01-29T02:57:50.385Z,45.58
2023-01-29T03:00:24.966Z,45.72
2023-01-29T03:03:00.438Z,45.00
2023-01-29T03:05:36.313Z,46.67
2023-01-29T03:08:11.415Z,43.97
2023-01-29T03:10:45.513Z,45.53
2023-01-29T03:13:22.082Z,47.40
2023-01-29T03:16:01.639Z,47.55
2023-01-29T03:18:50.994Z,46.13
2023-01-29T03:21:44.261Z,48.75
2023-01-29T03:24:35.772Z,47.25
2023-01-29T03:27:27.663Z,48.58
2023-01-29T03:30:16.048Z,48.00
2023-01-29T03:33:04.368Z,48.42
2023-01-29T03:35:39.640Z,47.72
2023-01-29T03:38:10.984Z,48.30
2023-01-29T03:40:50.442Z,45.78
2023-01-29T03:43:33.471Z,46.67
2023-01-29T03:46:10.229Z,45.87
2023-01-29T03:48:48.490Z,48.08
2023-01-29T03:51:26.516Z,46.50
2023-01-29T03:54:04.370Z,45.72
2023-01-29T03:56:46.890Z,45.47
2023-01-29T03:59:26.513Z,46.35
2023-01-29T04:02:19.315Z,47.03
2023-01-29T04:04:54.027Z,44.65
2023-01-29T04:07:25.042Z,45.65
2023-01-29T04:10:08.387Z,45.65
2023-01-29T04:12:44.300Z,47.90
2023-01-29T04:15:17.431Z,49.00
2023-01-29T04:17:52.738Z,47.13
2023-01-29T04:20:51.219Z,46.60
2023-01-29T04:23:25.919Z,47.00
2023-01-29T04:26:15.877Z,46.28
2023-01-29T04:28:59.567Z,45.65
2023-01-29T04:31:34.780Z,46.97
2023-01-29T04:34:17.099Z,45.30
2023-01-29T04:37:03.676Z,47.30
2023-01-29T04:39:45.071Z,46.83
2023-01-29T04:42:24.491Z,46.92
2023-01-29T04:45:02.535Z,45.80
2023-01-29T04:47:39.393Z,46.38
2023-01-29T04:50:18.021Z,46.20
2023-01-29T04:52:58.677Z,48.90
2023-01-29T04:55:37.347Z,45.50
2023-01-29T04:58:13.685Z,44.08
2023-01-29T05:00:44.681Z,45.47
2023-01-29T05:03:16.774Z,44.80
2023-01-29T05:05:49.438Z,46.08
2023-01-29T05:08:23.121Z,46.72
2023-01-29T05:10:55.246Z,45.92
2023-01-29T05:13:25.847Z,43.92
2023-01-29T05:16:01.911Z,47.55
2023-01-29T05:18:33.771Z,47.22
2023-01-29T05:21:08.821Z,46.70
2023-01-29T05:23:38.912Z,47.88
2023-01-29T05:26:07.881Z,45.38
2023-01-29T05:28:35.117Z,48.53
2023-01-29T05:31:03.770Z,47.15
2023-01-29T05:33:32.836Z,49.40
2023-01-29T05:36:01.716Z,48.75
2023-01-29T05:38:30.177Z,48.22
2023-01-29T05:41:01.425Z,49.15
2023-01-29T05:43:29.933Z,47.63
2023-01-29T05:45:59.830Z,47.53
2023-01-29T05:48:32.092Z,47.35
2023-01-29T05:51:02.287Z,46.72
2023-01-29T05:53:31.345Z,47.85
2023-01-29T05:56:03.411Z,46.63
2023-01-29T05:58:32.804Z,47.65
2023-01-29T06:01:11.023Z,48.40
2023-01-29T06:03:39.593Z,45.28
2023-01-29T06:06:09.242Z,48.60
2023-01-29T06:08:37.728Z,48.40
2023-01-29T06:11:11.425Z,47.13
2023-01-29T06:13:40.009Z,47.13
2023-01-29T06:16:10.341Z,50.40
2023-01-29T06:18:40.026Z,47.88
2023-01-29T06:21:11.005Z,47.13
2023-01-29T06:23:39.847Z,48.00
2023-01-29T06:26:13.351Z,47.13
2023-01-29T06:28:42.101Z,48.00
2023-01-29T06:31:27.469Z,47.85
2023-01-29T06:34:00.198Z,48.03
2023-01-29T06:36:28.850Z,47.55
2023-01-29T06:38:57.546Z,45.90
2023-01-29T06:41:27.342Z,46.67
2023-01-29T06:43:56.180Z,47.65
2023-01-29T06:46:24.538Z,47.92
2023-01-29T06:48:53.421Z,46.50
2023-01-29T06:51:23.048Z,47.53
2023-01-29T06:53:51.542Z,46.83
2023-01-29T06:56:19.795Z,47.30
2023-01-29T06:58:49.476Z,46.90
2023-01-29T07:01:34.523Z,45.85
2023-01-29T07:04:03.959Z,47.25
2023-01-29T07:06:32.796Z,48.28
2023-01-29T07:09:01.731Z,47.15
2023-01-29T07:11:30.589Z,46.92
2023-01-29T07:14:00.518Z,46.97
2023-01-29T07:16:29.110Z,49.13
2023-01-29T07:18:57.790Z,46.17
2023-01-29T07:21:26.171Z,48.60
2023-01-29T07:23:55.058Z,48.10
2023-01-29T07:26:23.537Z,48.83
2023-01-29T07:28:52.027Z,49.00
2023-01-29T07:31:22.946Z,49.45
2023-01-29T07:33:51.768Z,47.42
2023-01-29T07:36:20.210Z,47.22
2023-01-29T07:38:51.519Z,51.80
2023-01-29T07:41:20.143Z,49.08
2023-01-29T07:43:49.501Z,49.05
2023-01-29T07:46:17.871Z,48.00
2023-01-29T07:48:47.888Z,52.17
2023-01-29T07:51:18.159Z,47.33
2023-01-29T07:53:47.154Z,48.25
2023-01-29T07:56:16.508Z,50.40
2023-01-29T07:58:44.888Z,48.20
2023-01-29T08:01:13.516Z,48.80
2023-01-29T08:03:42.144Z,45.63
2023-01-29T08:06:11.896Z,47.67
2023-01-29T08:08:40.423Z,45.88
2023-01-29T08:11:08.760Z,44.97
2023-01-29T08:13:37.536Z,48.78
2023-01-29T08:16:07.507Z,47.03
2023-01-29T08:18:37.738Z,49.55
2023-01-29T08:21:06.647Z,47.45
2023-01-29T08:23:36.384Z,46.85
2023-01-29T08:26:05.261Z,48.78
2023-01-29T08:28:35.358Z,47.60
2023-01-29T08:31:03.684Z,47.35
2023-01-29T08:33:39.630Z,47.17
2023-01-29T08:36:10.489Z,48.63
2023-01-29T08:38:40.460Z,47.22
2023-01-29T08:41:09.271Z,45.80
2023-01-29T08:43:38.552Z,46.03
2023-01-29T08:46:07.936Z,47.45
2023-01-29T08:48:36.642Z,45.42
2023-01-29T08:51:05.966Z,45.45
2023-01-29T08:53:34.672Z,44.55
2023-01-29T08:56:04.759Z,47.25
2023-01-29T08:58:33.522Z,47.05
2023-01-29T09:01:08.772Z,47.47
2023-01-29T09:03:41.107Z,44.63
2023-01-29T09:06:12.337Z,49.70
2023-01-29T09:08:41.060Z,46.85
2023-01-29T09:11:11.275Z,46.28
2023-01-29T09:13:39.599Z,46.08
2023-01-29T09:16:08.914Z,46.17
2023-01-29T09:18:37.304Z,45.30
2023-01-29T09:21:06.714Z,46.35
2023-01-29T09:23:35.565Z,48.25
2023-01-29T09:26:04.224Z,46.72
2023-01-29T09:28:34.495Z,48.03
2023-01-29T09:31:04.590Z,44.10
2023-01-29T09:33:33.610Z,47.55
2023-01-29T09:36:04.515Z,45.55
2023-01-29T09:38:33.147Z,43.40
2023-01-29T09:41:10.471Z,45.42
2023-01-29T09:43:49.432Z,44.95
2023-01-29T09:46:23.737Z,44.15
2023-01-29T09:49:03.157Z,44.28
2023-01-29T09:51:38.748Z,42.80
2023-01-29T09:54:18.205Z,44.10
2023-01-29T09:56:49.219Z,48.45
2023-01-29T09:59:22.234Z,42.50
2023-01-29T10:02:02.403Z,42.30
2023-01-29T10:05:03.600Z,43.65
2023-01-29T10:08:04.341Z,44.25
2023-01-29T10:10:49.260Z,40.95
2023-01-29T10:13:30.636Z,41.33
2023-01-29T10:16:33.120Z,41.45
2023-01-29T10:19:18.755Z,43.42
2023-01-29T10:22:14.404Z,42.97
2023-01-29T10:24:53.822Z,41.17
2023-01-29T10:27:23.060Z,42.05
2023-01-29T10:29:56.524Z,39.33
2023-01-29T10:32:29.215Z,39.00
2023-01-29T10:37:38.817Z,39.95
2023-01-29T10:40:23.269Z,44.90
2023-01-29T10:43:01.907Z,40.97
2023-01-29T10:45:40.597Z,40.22
2023-01-29T10:48:38.837Z,48.97
2023-01-29T10:51:23.291Z,39.80
2023-01-29T10:54:10.034Z,39.95
2023-01-29T10:57:00.008Z,39.35
2023-01-29T10:59:50.046Z,38.92
2023-01-29T11:02:22.206Z,40.08
2023-01-29T11:04:52.078Z,39.90
2023-01-29T11:07:23.436Z,40.75
2023-01-29T11:09:59.658Z,39.80
2023-01-29T11:12:33.394Z,42.17
2023-01-29T11:15:08.319Z,41.33
2023-01-29T11:17:36.714Z,39.30
2023-01-29T11:20:27.349Z,39.05
2023-01-29T11:22:56.777Z,37.17
2023-01-29T11:25:25.931Z,37.80
2023-01-29T11:27:57.935Z,37.70
2023-01-29T11:30:29.603Z,39.38
2023-01-29T11:33:11.627Z,36.53
2023-01-29T11:35:41.832Z,38.95
2023-01-29T11:38:20.934Z,39.65
2023-01-29T11:40:49.733Z,38.78
2023-01-29T11:43:32.481Z,38.97
2023-01-29T11:46:05.351Z,35.90
2023-01-29T11:48:42.550Z,37.30
2023-01-29T11:51:22.499Z,37.03
2023-01-29T11:53:56.176Z,36.90
2023-01-29T11:56:30.449Z,35.40
2023-01-29T11:59:00.143Z,37.38
2023-01-29T12:01:35.466Z,35.03
2023-01-29T12:04:05.628Z,33.60
2023-01-29T12:06:42.212Z,33.53
2023-01-29T12:09:17.693Z,35.20
2023-01-29T12:11:46.040Z,33.42
2023-01-29T12:14:33.387Z,31.38
2023-01-29T12:17:08.226Z,31.08
2023-01-29T12:19:43.701Z,31.40
2023-01-29T12:22:22.028Z,30.90
2023-01-29T12:24:57.404Z,30.25
2023-01-29T12:27:32.979Z,51.60
2023-01-29T12:30:09.243Z,27.55
2023-01-29T12:32:46.445Z,25.27
2023-01-29T12:35:22.117Z,26.60
2023-01-29T12:38:00.778Z,25.20
2023-01-29T12:40:35.877Z,24.80
2023-01-29T12:43:12.842Z,23.90
2023-01-29T12:45:44.383Z,24.15
2023-01-29T12:48:22.016Z,24.30
2023-01-29T12:50:52.128Z,26.80
2023-01-29T12:53:28.838Z,23.33
2023-01-29T12:56:01.088Z,22.58
2023-01-29T12:58:36.442Z,23.55
2023-01-29T13:01:15.874Z,20.67
2023-01-29T13:03:54.619Z,21.63
2023-01-29T13:06:27.580Z,24.05
2023-01-29T13:09:00.944Z,22.25
2023-01-29T13:11:39.137Z,21.70
2023-01-29T13:14:19.996Z,23.17
2023-01-29T13:16:54.133Z,22.92
2023-01-29T13:19:29.584Z,23.02
2023-01-29T13:22:01.704Z,22.48
2023-01-29T13:24:39.884Z,22.23
2023-01-29T13:27:08.509Z,23.05
2023-01-29T13:29:36.738Z,22.80
2023-01-29T13:32:06.741Z,24.38
2023-01-29T13:34:38.454Z,20.55
2023-01-29T13:37:13.961Z,21.55
2023-01-29T13:39:51.762Z,21.65
2023-01-29T13:42:22.911Z,21.75
2023-01-29T13:44:55.173Z,20.10
2023-01-29T13:47:27.705Z,18.13
2023-01-29T13:50:00.946Z,18.20
2023-01-29T13:52:39.756Z,18.02
2023-01-29T13:55:31.257Z,16.80
2023-01-29T13:58:01.361Z,17.48
2023-01-29T14:01:01.132Z,17.17
2023-01-29T14:04:04.180Z,16.90
2023-01-29T14:06:51.553Z,18.08
2023-01-29T14:10:03.124Z,17.48
2023-01-29T14:12:49.149Z,16.92
2023-01-29T14:15:31.872Z,18.25
2023-01-29T14:18:20.636Z,19.52
2023-01-29T14:21:00.534Z,19.95
2023-01-29T14:23:48.561Z,18.23
2023-01-29T14:26:34.443Z,17.23
2023-01-29T14:29:08.817Z,20.25
2023-01-29T14:31:48.232Z,17.67
2023-01-29T14:34:29.011Z,18.73
2023-01-29T14:37:01.771Z,18.08
2023-01-29T14:39:36.878Z,21.25
2023-01-29T14:42:19.454Z,21.20
2023-01-29T14:45:01.922Z,19.60
2023-01-29T14:48:02.873Z,19.55
2023-01-29T14:51:00.094Z,19.88
2023-01-29T14:53:59.727Z,17.38
2023-01-29T14:56:35.009Z,19.60
2023-01-29T14:59:17.800Z,18.13
2023-01-29T15:01:52.349Z,18.50
2023-01-29T15:04:27.572Z,18.52
2023-01-29T15:07:05.250Z,18.77
2023-01-29T15:09:43.301Z,16.95
2023-01-29T15:12:26.920Z,17.80
2023-01-29T15:15:07.218Z,16.98
2023-01-29T15:17:47.038Z,18.77
2023-01-29T15:20:31.201Z,18.25
2023-01-29T15:22:59.841Z,18.77
2023-01-29T15:25:34.898Z,19.10
2023-01-29T15:28:08.368Z,19.92
2023-01-29T15:30:37.740Z,20.08
2023-01-29T15:33:11.462Z,19.42
2023-01-29T15:35:43.257Z,19.33
2023-01-29T15:38:19.060Z,21.00
2023-01-29T15:40:54.517Z,21.67
2023-01-29T15:43:25.340Z,24.75
2023-01-29T15:45:58.169Z,22.58
2023-01-29T15:48:33.894Z,25.10
2023-01-29T15:51:05.178Z,23.83
2023-01-29T15:53:39.105Z,25.40
2023-01-29T15:56:11.432Z,24.52
2023-01-29T15:58:41.021Z,25.25
2023-01-29T16:01:11.966Z,26.73
2023-01-29T16:03:42.335Z,25.05
2023-01-29T16:06:11.255Z,27.58
2023-01-29T16:08:41.070Z,25.33
2023-01-29T16:11:10.298Z,27.88
2023-01-29T16:13:43.207Z,28.63
2023-01-29T16:16:24.836Z,25.48
2023-01-29T16:19:00.438Z,24.75
2023-01-29T16:21:34.245Z,26.48
2023-01-29T16:24:09.119Z,27.70
2023-01-29T16:26:42.746Z,36.85
2023-01-29T16:29:13.296Z,31.98
2023-01-29T16:31:43.877Z,28.10
2023-01-29T16:34:27.117Z,27.83
2023-01-29T16:36:56.689Z,27.70
2023-01-29T16:39:30.686Z,28.77
2023-01-29T16:42:26.270Z,25.05
2023-01-29T16:45:01.947Z,28.35
2023-01-29T16:47:34.889Z,33.20
2023-01-29T16:50:36.127Z,28.95
2023-01-29T16:55:45.727Z,28.42
2023-01-29T16:58:17.659Z,27.10
2023-01-29T17:00:49.682Z,30.85
2023-01-29T17:03:19.559Z,29.42
2023-01-29T17:05:50.874Z,27.38
2023-01-29T17:08:26.556Z,26.58
2023-01-29T17:10:55.017Z,28.95
2023-01-29T17:13:29.776Z,29.65
2023-01-29T17:16:03.684Z,30.90
2023-01-29T17:18:32.223Z,31.85
2023-01-29T17:21:01.868Z,32.88
2023-01-29T17:23:30.066Z,28.92
2023-01-29T17:25:58.351Z,27.88
2023-01-29T17:28:27.153Z,27.75
2023-01-29T17:31:05.935Z,28.45
2023-01-29T17:33:36.447Z,30.10
2023-01-29T17:36:06.870Z,30.13
2023-01-29T17:38:35.028Z,26.80
2023-01-29T17:41:08.160Z,27.00
2023-01-29T17:43:36.375Z,29.98
2023-01-29T17:46:04.866Z,29.55
2023-01-29T17:48:33.205Z,28.45
2023-01-29T17:51:05.847Z,27.90
2023-01-29T17:53:45.668Z,27.60
2023-01-29T17:56:21.682Z,26.17
2023-01-29T17:58:49.987Z,26.90
2023-01-29T18:01:18.305Z,28.30
2023-01-29T18:03:46.484Z,34.00
2023-01-29T18:06:27.063Z,25.98
2023-01-29T18:08:56.233Z,27.75
2023-01-29T18:11:24.780Z,27.13
2023-01-29T18:13:53.114Z,26.35
2023-01-29T18:16:22.031Z,27.25
2023-01-29T18:18:51.285Z,26.45
2023-01-29T18:21:20.912Z,27.35
2023-01-29T18:23:49.915Z,24.92
2023-01-29T18:26:19.099Z,27.30
2023-01-29T18:28:47.344Z,30.20
2023-01-29T18:31:15.554Z,26.15
2023-01-29T18:33:43.773Z,25.48
2023-01-29T18:36:12.172Z,27.48
2023-01-29T18:38:41.766Z,27.70
2023-01-29T18:41:11.560Z,26.55
2023-01-29T18:43:41.008Z,27.05
2023-01-29T18:46:10.289Z,24.90
2023-01-29T18:48:39.911Z,27.05
2023-01-29T18:51:09.088Z,26.52
2023-01-29T18:53:37.378Z,25.52
2023-01-29T18:56:08.733Z,25.33
2023-01-29T18:58:37.503Z,26.73
2023-01-29T19:01:09.720Z,24.45
2023-01-29T19:03:38.603Z,26.13
2023-01-29T19:06:09.140Z,28.85
2023-01-29T19:08:37.686Z,26.17
2023-01-29T19:11:08.863Z,25.85
2023-01-29T19:13:38.261Z,25.75
2023-01-29T19:16:09.746Z,28.70
2023-01-29T19:18:38.324Z,28.67
2023-01-29T19:21:12.366Z,25.98
2023-01-29T19:23:40.935Z,27.23
2023-01-29T19:26:11.338Z,27.83
2023-01-29T19:28:39.535Z,27.80
2023-01-29T19:31:09.213Z,26.75
2023-01-29T19:33:37.426Z,27.17
2023-01-29T19:36:06.910Z,26.75
2023-01-29T19:38:38.407Z,26.67
2023-01-29T19:41:07.125Z,28.27
2023-01-29T19:43:38.091Z,26.80
2023-01-29T19:46:07.535Z,30.10
2023-01-29T19:48:35.844Z,27.65
2023-01-29T19:51:08.373Z,31.80
2023-01-29T19:53:38.070Z,31.60
2023-01-29T19:56:08.289Z,25.90
2023-01-29T19:58:38.293Z,28.70
2023-01-29T20:01:13.889Z,30.10
2023-01-29T20:03:42.847Z,27.60
2023-01-29T20:06:11.528Z,29.05
2023-01-29T20:08:39.755Z,29.30
2023-01-29T20:11:09.677Z,29.88
2023-01-29T20:13:39.233Z,28.45
2023-01-29T20:16:08.259Z,27.00
2023-01-29T20:18:36.535Z,30.58
2023-01-29T20:21:09.219Z,28.67
2023-01-29T20:23:38.934Z,28.67
2023-01-29T20:26:08.919Z,33.63
2023-01-29T20:28:38.598Z,26.35
2023-01-29T20:31:08.475Z,28.73
2023-01-29T20:33:39.334Z,32.50
2023-01-29T20:36:11.370Z,32.55
2023-01-29T20:38:39.792Z,27.88
2023-01-29T20:41:10.660Z,27.90
2023-01-29T20:43:40.409Z,31.63
2023-01-29T20:46:09.267Z,28.25
2023-01-29T20:48:37.655Z,28.13
2023-01-29T20:51:09.306Z,27.40
2023-01-29T20:53:38.392Z,28.55
2023-01-29T20:56:07.932Z,30.02
2023-01-29T20:58:36.774Z,29.05
2023-01-29T21:01:10.746Z,26.83
2023-01-29T21:03:39.682Z,25.70
2023-01-29T21:06:08.939Z,30.10
2023-01-29T21:08:38.434Z,28.38
2023-01-29T21:11:09.165Z,28.00
2023-01-29T21:13:38.054Z,26.92
2023-01-29T21:16:07.413Z,25.25
2023-01-29T21:18:37.103Z,28.40
2023-01-29T21:21:05.569Z,28.15
2023-01-29T21:23:33.782Z,33.03
2023-01-29T21:26:03.619Z,26.30
2023-01-29T21:28:32.165Z,26.52
2023-01-29T21:31:09.303Z,25.27
2023-01-29T21:33:39.460Z,32.75
2023-01-29T21:36:10.004Z,28.23
2023-01-29T21:38:38.674Z,29.10
2023-01-29T21:41:10.094Z,30.85
2023-01-29T21:43:38.908Z,28.52
2023-01-29T21:46:12.479Z,27.02
2023-01-29T21:48:42.228Z,26.08
2023-01-29T21:51:10.425Z,26.33
2023-01-29T21:53:38.739Z,32.80
2023-01-29T21:56:07.846Z,26.67
2023-01-29T21:58:36.060Z,28.00
2023-01-29T22:01:36.532Z,30.02
2023-01-29T22:03:53.815Z,25.73
2023-01-29T22:06:22.054Z,28.08
2023-01-29T22:08:50.631Z,25.98
2023-01-29T22:11:19.506Z,25.95
2023-01-29T22:13:47.863Z,28.08
2023-01-29T22:16:16.150Z,22.95
2023-01-29T22:18:44.324Z,27.60
2023-01-29T22:21:13.864Z,33.85
2023-01-29T22:23:42.050Z,25.85
2023-01-29T22:26:11.987Z,35.03
2023-01-29T22:28:40.146Z,23.85
2023-01-29T22:31:08.472Z,38.50
2023-01-29T22:33:36.760Z,27.88
2023-01-29T22:36:05.941Z,25.65
2023-01-29T22:38:35.669Z,31.75
2023-01-29T22:41:04.587Z,27.05
2023-01-29T22:43:32.906Z,24.45
2023-01-29T22:46:01.425Z,23.88
2023-01-29T22:48:30.471Z,24.33
2023-01-29T22:51:10.451Z,24.92
2023-01-29T22:53:41.749Z,25.17
2023-01-29T22:56:11.734Z,26.08
2023-01-29T22:58:40.990Z,34.20
2023-01-29T23:01:09.728Z,24.60
2023-01-29T23:03:38.101Z,30.08
2023-01-29T23:06:06.376Z,23.95
2023-01-29T23:08:34.961Z,28.00
2023-01-29T23:11:14.973Z,23.85
2023-01-29T23:13:45.199Z,24.85
2023-01-29T23:16:14.025Z,27.17
2023-01-29T23:18:42.551Z,32.28
2023-01-29T23:21:11.206Z,29.45
2023-01-29T23:23:39.965Z,28.10
2023-01-29T23:26:30.249Z,28.27
2023-01-29T23:28:58.481Z,42.05
2023-01-29T23:31:26.892Z,33.22
2023-01-29T23:33:55.121Z,30.80
2023-01-29T23:36:23.461Z,27.42
2023-01-29T23:38:51.943Z,35.05
2023-01-29T23:41:21.669Z,34.88
2023-01-29T23:43:50.225Z,31.13
2023-01-29T23:46:18.455Z,32.50
2023-01-29T23:48:46.744Z,29.85
2023-01-29T23:51:14.935Z,30.42
2023-01-29T23:53:43.197Z,28.63
2023-01-29T23:56:12.411Z,29.67
2023-01-29T23:58:42.050Z,29.27
